Time;durP1;ratioP1;P1;durP2;ratioP2;P2;SDS_P1;SDS_P2;PMS_P1;PMS_P2;Temp;Humidity;BMP_temperature;BMP_pressure;BME280_temperature;BME280_humidity;BME280_pressure;Samples;Min_cycle;Max_cycle;Signal;HPM_P1;HPM_P2
2024/01/19 00:00:16;;;;;;;34.13;18.92;;;8.70;78.90;;;;;;4957652;28;20102;-66
2024/01/19 00:02:42;;;;;;;32.95;16.17;;;8.70;79.00;;;;;;4957340;28;20074;-66
2024/01/19 00:05:08;;;;;;;31.23;16.77;;;8.60;78.90;;;;;;4957591;28;20110;-65
2024/01/19 00:07:34;;;;;;;30.50;15.55;;;8.70;78.90;;;;;;4957860;28;20102;-66
2024/01/19 00:10:00;;;;;;;27.48;15.45;;;8.70;79.00;;;;;;4957331;28;20032;-66
2024/01/19 00:12:26;;;;;;;29.85;15.43;;;8.70;79.00;;;;;;4957769;28;20031;-66
2024/01/19 00:14:51;;;;;;;28.60;14.60;;;8.70;78.90;;;;;;4957260;28;20469;-67
2024/01/19 00:17:17;;;;;;;26.35;14.23;;;8.70;78.70;;;;;;4957243;28;20050;-67
2024/01/19 00:19:43;;;;;;;26.35;13.95;;;8.70;78.80;;;;;;4957129;28;20023;-65
2024/01/19 00:22:09;;;;;;;28.00;14.18;;;8.70;78.80;;;;;;4957447;28;20046;-66
2024/01/19 00:24:35;;;;;;;25.55;13.77;;;8.70;78.70;;;;;;4960177;28;20436;-65
2024/01/19 00:27:02;;;;;;;30.48;15.88;;;8.80;78.70;;;;;;4961466;28;20372;-66
2024/01/19 00:29:29;;;;;;;27.05;14.48;;;8.80;78.70;;;;;;4961111;28;20031;-65
2024/01/19 00:31:54;;;;;;;28.45;14.65;;;8.70;78.60;;;;;;4961035;28;20023;-65
2024/01/19 00:34:20;;;;;;;28.17;14.73;;;8.70;78.70;;;;;;4961324;28;20353;-65
2024/01/19 00:36:46;;;;;;;24.63;13.57;;;8.70;78.70;;;;;;4961038;28;20070;-65
2024/01/19 00:39:13;;;;;;;26.55;14.20;;;8.70;78.70;;;;;;4961116;28;20110;-66
2024/01/19 00:41:38;;;;;;;26.45;14.18;;;8.70;78.70;;;;;;4960870;28;20453;-65
2024/01/19 00:44:05;;;;;;;27.13;14.65;;;8.70;78.80;;;;;;4961141;28;20038;-65
2024/01/19 00:46:31;;;;;;;27.38;14.50;;;8.80;78.70;;;;;;4961110;28;20023;-65
2024/01/19 00:48:57;;;;;;;29.42;15.18;;;8.80;78.50;;;;;;4960728;28;20330;-65
2024/01/19 00:51:23;;;;;;;23.85;13.60;;;8.80;78.60;;;;;;4961209;28;20062;-66
2024/01/19 00:53:49;;;;;;;24.60;13.63;;;8.80;78.50;;;;;;4960759;28;20031;-66
2024/01/19 00:56:17;;;;;;;27.27;13.75;;;8.80;78.40;;;;;;4960657;29;20026;-65
2024/01/19 00:58:44;;;;;;;27.45;14.60;;;8.80;78.50;;;;;;4960835;28;20023;-65
2024/01/19 01:01:14;;;;;;;24.88;12.30;;;8.80;78.50;;;;;;4960494;28;20462;-67
2024/01/19 01:03:40;;;;;;;26.30;13.27;;;8.80;78.40;;;;;;4960832;28;20114;-66
2024/01/19 01:06:06;;;;;;;23.85;12.52;;;8.90;78.30;;;;;;4960743;28;20110;-66
2024/01/19 01:08:35;;;;;;;23.75;13.00;;;8.80;78.20;;;;;;4961036;28;20365;-67
2024/01/19 01:11:03;;;;;;;25.33;13.02;;;8.80;78.10;;;;;;4960213;28;20031;-66
2024/01/19 01:13:30;;;;;;;24.50;12.65;;;8.80;78.10;;;;;;4960915;28;20047;-66
2024/01/19 01:15:56;;;;;;;23.20;12.05;;;8.80;78.20;;;;;;4960906;28;20078;-66
2024/01/19 01:18:21;;;;;;;22.50;13.20;;;8.80;78.20;;;;;;4960299;28;20035;-66
2024/01/19 01:20:50;;;;;;;26.33;14.25;;;8.80;78.20;;;;;;4960371;28;20106;-66
2024/01/19 01:23:16;;;;;;;28.88;14.05;;;8.80;78.20;;;;;;4960485;28;20023;-66
2024/01/19 01:25:42;;;;;;;25.85;13.50;;;8.80;78.00;;;;;;4960405;28;20039;-66
2024/01/19 01:28:08;;;;;;;24.02;13.25;;;8.70;78.10;;;;;;4960383;28;20035;-66
2024/01/19 01:30:34;;;;;;;26.88;13.43;;;8.60;78.20;;;;;;4960187;28;20031;-66
2024/01/19 01:33:00;;;;;;;25.08;12.77;;;8.60;78.30;;;;;;4959978;28;20035;-66
2024/01/19 01:35:26;;;;;;;25.95;13.70;;;8.60;78.30;;;;;;4959850;28;20111;-66
2024/01/19 01:37:52;;;;;;;24.13;13.85;;;8.60;78.40;;;;;;4959983;28;20106;-66
2024/01/19 01:40:18;;;;;;;23.23;12.93;;;8.60;78.50;;;;;;4960009;28;20061;-66
2024/01/19 01:42:44;;;;;;;23.58;13.85;;;8.70;78.20;;;;;;4960329;28;20460;-65
2024/01/19 01:45:10;;;;;;;23.83;12.80;;;8.60;78.30;;;;;;4960128;28;20078;-67
2024/01/19 01:47:37;;;;;;;22.33;13.40;;;8.60;78.20;;;;;;4960040;28;20064;-65
2024/01/19 01:50:04;;;;;;;24.80;13.00;;;8.60;78.20;;;;;;4959360;28;20098;-66
2024/01/19 01:52:30;;;;;;;20.73;12.15;;;8.60;78.30;;;;;;4959528;28;20504;-65
2024/01/19 01:54:56;;;;;;;21.52;12.40;;;8.60;78.30;;;;;;4959623;28;20578;-65
2024/01/19 01:57:24;;;;;;;21.83;11.90;;;8.50;78.30;;;;;;4959614;28;20349;-66
2024/01/19 01:59:51;;;;;;;19.63;10.98;;;8.60;78.40;;;;;;4959725;28;20055;-65
2024/01/19 02:02:18;;;;;;;21.23;10.18;;;8.60;78.40;;;;;;4959520;28;20095;-65
2024/01/19 02:04:44;;;;;;;21.38;10.85;;;8.60;78.40;;;;;;4959959;28;20405;-66
2024/01/19 02:07:09;;;;;;;21.35;11.02;;;8.60;78.40;;;;;;4959423;28;20059;-66
2024/01/19 02:09:36;;;;;;;22.63;11.05;;;8.60;78.40;;;;;;4959536;28;20023;-65
2024/01/19 02:12:03;;;;;;;19.88;11.07;;;8.70;78.40;;;;;;4959487;28;20024;-65
2024/01/19 02:14:29;;;;;;;26.15;12.32;;;8.70;78.40;;;;;;4959262;28;20027;-66
2024/01/19 02:16:55;;;;;;;22.67;11.60;;;8.70;78.50;;;;;;4959239;28;20027;-66
2024/01/19 02:19:21;;;;;;;25.90;12.70;;;8.80;78.40;;;;;;4959446;28;20051;-65
2024/01/19 02:21:47;;;;;;;23.05;12.15;;;8.80;78.40;;;;;;4959133;28;20027;-65
2024/01/19 02:24:14;;;;;;;24.92;12.90;;;8.80;78.40;;;;;;4959620;28;20086;-65
2024/01/19 02:26:41;;;;;;;25.50;13.05;;;8.80;78.40;;;;;;4959302;28;20027;-66
2024/01/19 02:29:07;;;;;;;22.30;11.98;;;8.80;78.50;;;;;;4958943;28;20028;-66
2024/01/19 02:31:33;;;;;;;25.75;13.48;;;8.80;78.60;;;;;;4958921;28;20442;-66
2024/01/19 02:33:58;;;;;;;25.98;14.40;;;8.80;78.60;;;;;;4959177;28;20035;-65
2024/01/19 02:36:24;;;;;;;27.52;12.93;;;8.80;78.60;;;;;;4959364;28;20027;-65
2024/01/19 02:38:51;;;;;;;24.52;13.70;;;8.80;78.60;;;;;;4958753;28;20019;-66
2024/01/19 02:41:16;;;;;;;27.58;14.00;;;8.80;78.60;;;;;;4958780;28;20038;-66
2024/01/19 02:43:42;;;;;;;26.38;13.13;;;8.80;78.70;;;;;;4958710;28;20102;-65
2024/01/19 02:46:09;;;;;;;26.90;13.48;;;8.80;78.60;;;;;;4959166;28;20110;-65
2024/01/19 02:51:01;;;;;;;24.90;13.65;;;8.80;78.60;;;;;;4958378;28;20059;-67
2024/01/19 02:53:26;;;;;;;25.55;13.57;;;8.80;78.70;;;;;;4957586;28;20118;-66
2024/01/19 02:55:52;;;;;;;25.25;13.38;;;8.80;78.60;;;;;;4958706;28;20035;-66
2024/01/19 02:58:18;;;;;;;27.33;13.25;;;8.80;78.70;;;;;;4958738;29;20079;-66
2024/01/19 03:00:44;;;;;;;25.13;13.07;;;8.80;78.60;;;;;;4958626;28;20027;-66
2024/01/19 03:03:10;;;;;;;27.60;13.95;;;8.80;78.70;;;;;;4958654;28;20135;-66
2024/01/19 03:05:36;;;;;;;23.15;13.48;;;8.80;78.80;;;;;;4958611;28;20135;-66
2024/01/19 03:08:02;;;;;;;24.23;12.35;;;8.80;78.70;;;;;;4958263;28;20058;-67
2024/01/19 03:10:28;;;;;;;25.00;13.15;;;8.80;78.70;;;;;;4958186;28;20030;-66
2024/01/19 03:12:54;;;;;;;20.90;11.90;;;8.80;78.80;;;;;;4958373;29;20074;-65
2024/01/19 03:15:20;;;;;;;28.70;13.95;;;8.80;78.70;;;;;;4958371;28;20027;-65
2024/01/19 03:17:46;;;;;;;27.40;14.82;;;8.80;78.70;;;;;;4958586;28;20082;-66
2024/01/19 03:20:13;;;;;;;27.85;13.68;;;8.80;78.70;;;;;;4957992;28;20023;-65
2024/01/19 03:22:39;;;;;;;28.10;13.23;;;8.80;78.70;;;;;;4957948;28;20039;-65
2024/01/19 03:25:06;;;;;;;25.02;13.13;;;8.80;78.70;;;;;;4957951;28;20036;-66
2024/01/19 03:27:32;;;;;;;27.92;13.13;;;8.80;78.70;;;;;;4958161;28;20031;-67
2024/01/19 03:29:58;;;;;;;27.60;13.32;;;8.80;78.80;;;;;;4957845;28;20331;-65
2024/01/19 03:32:24;;;;;;;26.13;13.00;;;8.80;78.80;;;;;;4958247;28;20058;-67
2024/01/19 03:34:50;;;;;;;26.05;12.82;;;8.80;78.80;;;;;;4958075;28;20051;-67
2024/01/19 03:37:16;;;;;;;25.15;13.02;;;8.80;78.70;;;;;;4957739;28;20405;-67
2024/01/19 03:39:42;;;;;;;25.55;12.77;;;8.80;78.70;;;;;;4957700;28;20119;-67
2024/01/19 03:42:08;;;;;;;22.02;12.45;;;8.80;78.70;;;;;;4957976;28;20042;-66
2024/01/19 03:44:34;;;;;;;23.42;12.40;;;8.80;78.80;;;;;;4957944;28;20035;-66
2024/01/19 03:47:00;;;;;;;24.95;13.10;;;8.80;78.80;;;;;;4957904;28;20106;-67
2024/01/19 03:49:26;;;;;;;24.02;12.65;;;8.90;78.70;;;;;;4957261;28;20416;-67
2024/01/19 03:52:03;;;;;;;25.45;12.80;;;8.80;78.70;;;;;;4957789;28;20031;-66
2024/01/19 03:54:30;;;;;;;25.35;13.35;;;8.90;78.70;;;;;;4957525;28;20413;-67
2024/01/19 03:56:58;;;;;;;24.05;12.23;;;8.90;78.70;;;;;;4957742;28;20086;-67
2024/01/19 03:59:24;;;;;;;22.90;12.43;;;8.90;78.70;;;;;;4957362;28;20015;-67
2024/01/19 04:01:50;;;;;;;25.02;12.90;;;8.90;78.70;;;;;;4957374;28;20058;-66
2024/01/19 04:04:16;;;;;;;23.73;12.73;;;8.90;78.70;;;;;;4957393;28;20039;-67
2024/01/19 04:06:42;;;;;;;23.55;12.50;;;8.90;78.70;;;;;;4957928;28;20027;-66
2024/01/19 04:09:08;;;;;;;20.50;11.65;;;8.90;78.70;;;;;;4957558;28;20031;-66
2024/01/19 04:11:36;;;;;;;23.23;12.73;;;8.80;78.80;;;;;;4957487;28;20058;-66
2024/01/19 04:14:03;;;;;;;23.63;11.93;;;8.80;78.70;;;;;;4957537;28;20038;-67
2024/01/19 04:16:29;;;;;;;21.30;11.85;;;8.90;78.90;;;;;;4957278;28;20047;-67
2024/01/19 04:18:55;;;;;;;20.75;12.02;;;8.90;78.90;;;;;;4957202;28;20031;-67
2024/01/19 04:21:21;;;;;;;23.88;12.68;;;8.90;78.80;;;;;;4957534;28;20401;-66
2024/01/19 04:23:48;;;;;;;26.30;13.18;;;8.80;78.80;;;;;;4957466;28;20042;-67
2024/01/19 04:26:14;;;;;;;26.05;13.95;;;8.90;78.80;;;;;;4957166;28;20038;-66
2024/01/19 04:28:40;;;;;;;23.63;13.13;;;8.80;79.10;;;;;;4957720;28;20428;-66
2024/01/19 04:31:06;;;;;;;25.17;13.45;;;8.80;79.10;;;;;;4957235;28;20310;-66
2024/01/19 04:33:33;;;;;;;23.60;12.02;;;8.90;79.00;;;;;;4957348;28;20118;-66
2024/01/19 04:35:58;;;;;;;23.13;12.77;;;8.80;78.90;;;;;;4957083;28;20035;-67
2024/01/19 04:38:24;;;;;;;25.63;12.52;;;8.90;78.90;;;;;;4957313;29;20027;-66
2024/01/19 04:40:50;;;;;;;22.67;12.23;;;8.80;78.90;;;;;;4956949;28;20099;-66
2024/01/19 04:43:17;;;;;;;26.65;13.05;;;8.90;78.90;;;;;;4957060;28;20078;-66
2024/01/19 04:45:45;;;;;;;25.85;12.88;;;8.90;78.90;;;;;;4956946;28;20027;-66
2024/01/19 04:48:11;;;;;;;22.60;12.70;;;8.80;78.90;;;;;;4956957;28;20054;-66
2024/01/19 04:50:38;;;;;;;23.17;12.00;;;8.80;78.90;;;;;;4956708;28;20127;-66
2024/01/19 04:53:05;;;;;;;23.60;12.13;;;8.90;78.90;;;;;;4957168;28;20129;-66
2024/01/19 04:55:31;;;;;;;23.17;12.60;;;8.80;78.80;;;;;;4957212;28;20039;-66
2024/01/19 04:57:57;;;;;;;23.17;11.82;;;8.80;78.90;;;;;;4957511;28;20074;-66
2024/01/19 05:00:22;;;;;;;20.92;11.77;;;8.80;78.90;;;;;;4957078;28;20020;-66
2024/01/19 05:02:49;;;;;;;22.75;11.68;;;8.80;79.00;;;;;;4956858;28;20054;-66
2024/01/19 05:05:16;;;;;;;20.13;11.50;;;8.80;79.00;;;;;;4956850;28;20027;-66
2024/01/19 05:07:42;;;;;;;21.35;12.38;;;8.90;78.90;;;;;;4956811;28;20043;-66
2024/01/19 05:10:08;;;;;;;22.27;12.35;;;8.90;78.90;;;;;;4956933;28;20042;-66
2024/01/19 05:12:34;;;;;;;22.52;11.93;;;8.80;78.90;;;;;;4960840;28;20493;-66
2024/01/19 05:15:00;;;;;;;20.60;10.95;;;8.80;79.00;;;;;;4960378;28;20045;-66
2024/01/19 05:17:26;;;;;;;23.77;12.25;;;8.90;79.00;;;;;;4960608;28;20103;-66
2024/01/19 05:19:52;;;;;;;22.77;12.43;;;8.90;79.00;;;;;;4960393;28;20020;-66
2024/01/19 05:22:18;;;;;;;24.08;12.07;;;8.90;78.90;;;;;;4959264;28;20356;-66
2024/01/19 05:24:44;;;;;;;23.35;12.65;;;8.90;79.00;;;;;;4959257;28;20030;-66
2024/01/19 05:27:10;;;;;;;22.42;11.50;;;8.90;78.90;;;;;;4960651;28;20035;-66
2024/01/19 05:29:37;;;;;;;25.70;14.70;;;8.90;79.00;;;;;;4960011;28;20019;-66
2024/01/19 05:32:03;;;;;;;22.83;13.95;;;8.90;78.90;;;;;;4960003;28;20042;-66
2024/01/19 05:34:29;;;;;;;24.20;13.73;;;8.90;78.90;;;;;;4960005;28;20058;-66
2024/01/19 05:36:55;;;;;;;23.70;13.82;;;8.90;78.90;;;;;;4959954;28;20027;-66
2024/01/19 05:39:21;;;;;;;22.80;12.70;;;8.90;79.00;;;;;;4959861;28;20134;-66
2024/01/19 05:41:47;;;;;;;28.02;16.23;;;8.90;79.00;;;;;;4960107;28;20052;-65
2024/01/19 05:44:14;;;;;;;28.23;14.38;;;8.90;79.10;;;;;;4960025;28;20041;-66
2024/01/19 05:46:40;;;;;;;20.65;11.43;;;8.90;79.20;;;;;;4959779;28;20035;-66
2024/01/19 05:49:06;;;;;;;22.13;12.30;;;8.90;79.20;;;;;;4959888;28;20031;-66
2024/01/19 05:51:32;;;;;;;23.10;12.13;;;8.90;79.20;;;;;;4959510;28;20062;-66
2024/01/19 05:54:01;;;;;;;22.80;12.35;;;8.90;79.20;;;;;;4960175;28;20102;-65
2024/01/19 05:56:28;;;;;;;22.20;12.85;;;8.90;79.20;;;;;;4958713;29;20023;-65
2024/01/19 05:58:54;;;;;;;22.60;12.13;;;8.90;79.40;;;;;;4959781;28;20023;-65
2024/01/19 06:01:21;;;;;;;28.50;13.70;;;8.90;79.40;;;;;;4959555;28;20038;-66
2024/01/19 06:03:46;;;;;;;21.90;12.25;;;8.90;79.30;;;;;;4959429;28;20380;-65
2024/01/19 06:06:13;;;;;;;22.67;12.50;;;8.90;79.30;;;;;;4959717;28;20019;-66
2024/01/19 06:08:39;;;;;;;20.40;12.23;;;8.90;79.20;;;;;;4959455;28;20075;-66
2024/01/19 06:11:05;;;;;;;22.85;12.75;;;8.90;79.10;;;;;;4959536;28;20390;-66
2024/01/19 06:13:31;;;;;;;22.88;12.20;;;8.90;79.20;;;;;;4959577;28;20029;-65
2024/01/19 06:15:57;;;;;;;22.45;12.07;;;8.90;79.20;;;;;;4959207;28;20354;-67
2024/01/19 06:18:23;;;;;;;21.08;11.57;;;8.90;79.10;;;;;;4959282;28;20023;-66
2024/01/19 06:20:49;;;;;;;24.42;12.73;;;8.90;79.10;;;;;;4958161;28;20545;-67
2024/01/19 06:23:15;;;;;;;22.98;13.40;;;8.90;79.10;;;;;;4958942;28;20028;-66
2024/01/19 06:25:41;;;;;;;25.08;14.18;;;8.90;79.20;;;;;;4959632;28;20066;-66
2024/01/19 06:28:07;;;;;;;24.20;13.18;;;8.90;79.20;;;;;;4959043;28;20477;-66
2024/01/19 06:30:33;;;;;;;25.77;13.68;;;8.90;79.30;;;;;;4959167;28;20023;-67
2024/01/19 06:33:00;;;;;;;23.67;12.45;;;8.90;79.10;;;;;;4959407;28;20389;-66
2024/01/19 06:35:26;;;;;;;28.60;14.32;;;8.90;79.10;;;;;;4958821;28;20066;-65
2024/01/19 06:37:51;;;;;;;24.13;13.43;;;8.90;79.20;;;;;;4958822;28;20032;-65
2024/01/19 06:40:18;;;;;;;24.27;13.32;;;8.90;79.20;;;;;;4959017;28;20107;-67
2024/01/19 06:42:44;;;;;;;22.88;13.30;;;8.90;79.30;;;;;;4958735;28;20122;-65
2024/01/19 06:45:11;;;;;;;25.75;13.80;;;8.80;79.30;;;;;;4958671;28;20035;-66
2024/01/19 06:47:37;;;;;;;22.73;12.90;;;8.80;79.40;;;;;;4958931;28;20038;-67
2024/01/19 06:50:04;;;;;;;26.30;15.23;;;8.90;79.40;;;;;;4958593;28;20500;-66
2024/01/19 06:52:30;;;;;;;25.13;14.18;;;8.80;79.80;;;;;;4959062;28;20074;-66
2024/01/19 06:54:55;;;;;;;26.48;15.23;;;8.80;79.60;;;;;;4959040;28;20102;-67
2024/01/19 06:57:21;;;;;;;23.23;14.68;;;8.80;79.60;;;;;;4958466;28;20139;-67
2024/01/19 06:59:49;;;;;;;25.77;15.23;;;8.80;79.60;;;;;;4958660;28;20106;-67
2024/01/19 07:02:16;;;;;;;26.92;15.68;;;8.80;79.60;;;;;;5255191;23;20058;-69
2024/01/19 07:04:42;;;;;;;27.17;14.90;;;8.80;79.50;;;;;;4997314;28;20045;-69
2024/01/19 07:07:09;;;;;;;31.90;19.08;;;8.80;79.50;;;;;;4997498;28;20038;-70
2024/01/19 07:09:36;;;;;;;48.13;32.58;;;8.80;79.50;;;;;;4996876;28;20034;-69
2024/01/19 07:12:05;;;;;;;40.17;24.42;;;8.90;79.70;;;;;;4996723;28;20440;-69
2024/01/19 07:14:31;;;;;;;31.25;19.70;;;8.90;79.50;;;;;;4997342;28;20332;-70
2024/01/19 07:16:57;;;;;;;33.78;20.75;;;8.90;79.60;;;;;;4996773;28;20053;-70
2024/01/19 07:19:26;;;;;;;31.40;18.17;;;8.80;79.60;;;;;;4996798;28;20452;-70
2024/01/19 07:21:52;;;;;;;29.98;17.63;;;8.90;79.60;;;;;;4997186;28;20043;-70
2024/01/19 07:24:19;;;;;;;27.65;16.75;;;8.90;79.60;;;;;;4996687;28;20497;-70
2024/01/19 07:26:45;;;;;;;26.98;16.75;;;8.80;79.50;;;;;;4996688;28;20065;-70
2024/01/19 07:29:11;;;;;;;29.38;17.92;;;8.80;79.50;;;;;;4996607;28;20070;-70
2024/01/19 07:31:38;;;;;;;28.48;16.20;;;8.90;79.50;;;;;;4996693;28;20034;-70
2024/01/19 07:34:05;;;;;;;30.95;17.23;;;8.80;79.60;;;;;;4996279;28;20018;-70
2024/01/19 07:36:31;;;;;;;23.90;14.27;;;8.80;79.60;;;;;;4996515;28;20076;-69
2024/01/19 07:38:57;;;;;;;24.45;14.70;;;8.90;79.60;;;;;;4996706;28;20051;-69
2024/01/19 07:41:23;;;;;;;26.50;14.45;;;8.90;79.50;;;;;;4996705;28;20153;-69
2024/01/19 07:43:49;;;;;;;25.13;14.32;;;8.90;79.50;;;;;;4996884;28;20102;-70
2024/01/19 07:46:15;;;;;;;26.50;14.77;;;8.90;79.70;;;;;;4996290;28;20030;-69
2024/01/19 07:48:42;;;;;;;28.20;15.43;;;8.90;79.70;;;;;;4996556;28;20097;-69
2024/01/19 07:51:08;;;;;;;27.25;15.10;;;8.90;79.80;;;;;;4996356;28;20506;-69
2024/01/19 07:53:34;;;;;;;26.40;14.82;;;8.90;79.80;;;;;;4996209;28;20478;-69
2024/01/19 07:56:01;;;;;;;24.63;14.70;;;8.90;79.80;;;;;;4996432;28;20037;-69
2024/01/19 07:58:27;;;;;;;23.00;13.82;;;8.90;79.90;;;;;;4996653;28;20368;-69
2024/01/19 08:00:53;;;;;;;26.00;14.55;;;8.90;79.80;;;;;;4996506;28;20022;-69
2024/01/19 08:03:21;;;;;;;24.08;14.85;;;8.90;79.90;;;;;;4996565;28;20325;-69
2024/01/19 08:05:47;;;;;;;27.90;15.90;;;9.00;79.90;;;;;;4996542;28;20030;-69
2024/01/19 08:08:13;;;;;;;27.67;16.42;;;9.00;79.90;;;;;;4995993;28;20022;-68
2024/01/19 08:10:39;;;;;;;26.92;15.77;;;9.00;79.80;;;;;;4996187;28;20474;-68
2024/01/19 08:13:05;;;;;;;26.58;15.52;;;9.00;79.90;;;;;;4995761;28;20058;-68
2024/01/19 08:15:31;;;;;;;27.63;16.25;;;9.10;80.00;;;;;;4996108;28;20026;-68
2024/01/19 08:17:57;;;;;;;29.08;16.80;;;9.10;80.10;;;;;;4996094;28;20034;-68
2024/01/19 08:20:24;;;;;;;30.70;16.98;;;9.10;80.00;;;;;;4995808;28;20034;-68
2024/01/19 08:22:53;;;;;;;26.08;15.50;;;9.10;80.10;;;;;;4995728;28;20448;-68
2024/01/19 08:25:19;;;;;;;27.25;16.33;;;9.20;80.10;;;;;;4996085;28;20037;-68
2024/01/19 08:27:46;;;;;;;26.15;15.50;;;9.20;80.10;;;;;;4996056;28;20036;-69
2024/01/19 08:30:12;;;;;;;29.13;15.43;;;9.30;80.00;;;;;;4995711;28;20038;-68
2024/01/19 08:32:38;;;;;;;26.48;15.70;;;9.40;80.00;;;;;;4995600;28;20045;-68
2024/01/19 08:35:11;;;;;;;27.58;16.80;;;9.40;80.10;;;;;;4995703;28;20376;-69
2024/01/19 08:37:38;;;;;;;27.80;16.00;;;9.40;80.20;;;;;;4996340;28;20020;-69
2024/01/19 08:40:12;;;;;;;25.02;15.40;;;9.40;80.30;;;;;;4995735;28;20065;-69
2024/01/19 08:42:38;;;;;;;24.10;14.65;;;9.50;80.10;;;;;;4995634;28;20034;-69
2024/01/19 08:45:05;;;;;;;34.70;20.17;;;9.60;80.10;;;;;;4995850;28;20076;-69
2024/01/19 08:47:31;;;;;;;33.58;17.25;;;9.60;79.90;;;;;;4999572;28;20113;-69
2024/01/19 08:49:59;;;;;;;30.48;17.02;;;9.70;80.20;;;;;;4999549;28;20058;-69
2024/01/19 08:52:28;;;;;;;28.30;16.95;;;9.70;80.10;;;;;;4999369;28;20440;-69
2024/01/19 08:54:54;;;;;;;27.45;14.98;;;9.70;80.20;;;;;;4999501;28;20010;-69
2024/01/19 08:57:20;;;;;;;27.77;16.02;;;9.70;80.10;;;;;;4999448;28;20041;-68
2024/01/19 08:59:47;;;;;;;32.10;15.88;;;9.80;80.40;;;;;;4999402;28;20073;-68
2024/01/19 09:02:13;;;;;;;27.08;15.43;;;9.70;80.60;;;;;;4999327;28;20058;-68
2024/01/19 09:04:39;;;;;;;33.30;18.88;;;9.70;80.50;;;;;;5245767;23;20055;-73
2024/01/19 09:07:05;;;;;;;34.15;20.33;;;9.70;80.70;;;;;;5585696;23;20042;-68
2024/01/19 09:09:31;;;;;;;37.08;21.98;;;9.70;80.50;;;;;;4999100;28;20037;-68
2024/01/19 09:11:57;;;;;;;32.75;20.33;;;9.70;80.40;;;;;;4999288;28;20022;-68
2024/01/19 09:14:26;;;;;;;35.75;21.50;;;9.70;80.60;;;;;;4999102;28;20026;-68
2024/01/19 09:16:52;;;;;;;33.38;20.40;;;9.60;80.60;;;;;;5002588;28;20073;-68
2024/01/19 09:19:18;;;;;;;38.75;22.23;;;9.50;81.10;;;;;;5001052;28;20022;-68
2024/01/19 09:21:44;;;;;;;33.22;19.50;;;9.50;80.80;;;;;;4998973;28;20033;-68
2024/01/19 09:24:11;;;;;;;34.40;19.70;;;9.50;80.70;;;;;;4998901;28;20033;-68
2024/01/19 09:26:37;;;;;;;35.60;19.85;;;9.40;80.60;;;;;;4999725;28;20066;-68
2024/01/19 09:29:04;;;;;;;37.75;21.85;;;9.40;80.60;;;;;;4999049;28;20030;-68
2024/01/19 09:31:30;;;;;;;36.38;22.17;;;9.40;80.50;;;;;;4998593;28;20467;-68
2024/01/19 09:33:56;;;;;;;35.22;21.60;;;9.40;80.60;;;;;;4998759;28;20061;-68
2024/01/19 09:36:22;;;;;;;29.42;18.05;;;9.40;80.80;;;;;;4998866;28;20050;-68
2024/01/19 09:38:48;;;;;;;19.63;11.73;;;9.20;81.20;;;;;;4998901;28;20015;-68
2024/01/19 09:41:32;;;;;;;8.95;5.03;;;9.00;80.70;;;;;;4998596;28;20084;-68
2024/01/19 09:44:01;;;;;;;8.77;3.60;;;8.40;81.40;;;;;;4998893;28;20034;-68
2024/01/19 09:46:29;;;;;;;2.80;2.13;;;8.10;81.80;;;;;;4998684;28;20030;-68
2024/01/19 09:49:32;;;;;;;2.65;2.28;;;7.70;82.00;;;;;;4998980;28;20033;-67
2024/01/19 09:52:02;;;;;;;2.90;2.17;;;7.50;82.80;;;;;;4999035;28;20183;-68
2024/01/19 09:54:32;;;;;;;3.72;2.00;;;7.40;82.50;;;;;;4998858;28;20057;-67
2024/01/19 09:57:03;;;;;;;2.92;1.70;;;7.30;82.60;;;;;;4997692;28;20101;-68
2024/01/19 09:59:33;;;;;;;1.85;1.50;;;7.30;82.40;;;;;;4998847;28;20030;-67
2024/01/19 10:02:01;;;;;;;2.03;1.58;;;7.30;82.20;;;;;;4998199;28;20038;-67
2024/01/19 10:04:28;;;;;;;2.78;1.52;;;7.40;82.40;;;;;;4997252;28;20019;-67
2024/01/19 10:06:55;;;;;;;2.47;1.40;;;7.40;82.20;;;;;;4998081;28;20048;-68
2024/01/19 10:09:22;;;;;;;1.23;0.82;;;7.60;82.00;;;;;;4998061;28;20076;-67
2024/01/19 10:11:55;;;;;;;1.30;1.20;;;7.60;81.70;;;;;;4997927;28;20026;-67
2024/01/19 10:14:22;;;;;;;2.15;1.20;;;7.60;81.30;;;;;;4997998;28;20444;-67
2024/01/19 10:16:49;;;;;;;1.63;1.30;;;7.60;81.30;;;;;;4997841;28;20515;-68
2024/01/19 10:19:16;;;;;;;2.03;1.50;;;7.60;81.50;;;;;;4997824;28;20019;-67
2024/01/19 10:21:43;;;;;;;1.30;1.20;;;7.50;81.40;;;;;;4997785;28;20038;-69
2024/01/19 10:24:11;;;;;;;1.85;1.48;;;7.30;82.00;;;;;;4997770;28;20464;-68
2024/01/19 10:26:38;;;;;;;1.52;1.42;;;7.20;82.20;;;;;;4997633;28;20389;-68
2024/01/19 10:29:11;;;;;;;2.67;1.90;;;7.10;82.70;;;;;;4998226;28;20031;-68
2024/01/19 10:31:37;;;;;;;2.30;2.00;;;7.10;82.90;;;;;;4997898;28;20030;-69
2024/01/19 10:34:03;;;;;;;3.03;2.10;;;7.20;82.70;;;;;;4997844;28;20137;-69
2024/01/19 10:36:39;;;;;;;3.10;2.17;;;7.30;82.70;;;;;;4997735;28;20105;-68
2024/01/19 10:39:17;;;;;;;1.70;1.60;;;7.30;82.50;;;;;;4997489;28;20046;-68
2024/01/19 10:41:43;;;;;;;2.28;1.77;;;7.30;82.30;;;;;;4997675;28;20030;-68
2024/01/19 10:44:11;;;;;;;2.17;1.70;;;7.20;81.70;;;;;;4997363;28;20026;-68
2024/01/19 10:46:37;;;;;;;1.40;1.30;;;7.20;81.80;;;;;;4997239;28;20038;-67
2024/01/19 10:49:10;;;;;;;1.83;1.45;;;7.20;81.20;;;;;;4997555;28;20022;-68
2024/01/19 10:51:46;;;;;;;2.10;1.58;;;7.20;81.20;;;;;;4997488;28;20034;-68
2024/01/19 10:54:23;;;;;;;1.98;1.63;;;7.10;81.00;;;;;;4997948;28;20042;-68
2024/01/19 10:57:01;;;;;;;1.63;1.52;;;7.00;80.90;;;;;;4997054;28;20124;-68
2024/01/19 10:59:27;;;;;;;1.52;1.42;;;7.00;80.70;;;;;;4997143;28;20036;-68
2024/01/19 11:01:58;;;;;;;2.15;1.73;;;6.90;80.10;;;;;;4997571;28;20098;-68
2024/01/19 11:04:25;;;;;;;1.70;1.60;;;6.80;80.60;;;;;;4997336;28;20026;-68
2024/01/19 11:06:51;;;;;;;1.83;1.73;;;6.80;80.70;;;;;;4996651;28;20030;-68
2024/01/19 11:09:17;;;;;;;1.90;1.73;;;6.60;80.30;;;;;;4995519;28;20088;-69
2024/01/19 11:12:04;;;;;;;2.03;1.83;;;6.60;80.40;;;;;;4996870;28;20027;-69
2024/01/19 11:14:35;;;;;;;2.08;1.77;;;6.40;80.60;;;;;;4997426;28;20022;-69
2024/01/19 11:17:01;;;;;;;2.15;1.73;;;6.40;80.40;;;;;;4996055;28;20058;-69
2024/01/19 11:19:29;;;;;;;2.03;1.70;;;6.40;80.00;;;;;;4996732;28;20022;-68
2024/01/19 11:21:55;;;;;;;1.58;1.48;;;6.40;79.70;;;;;;4996679;28;20022;-68
2024/01/19 11:24:26;;;;;;;2.30;1.90;;;6.20;79.60;;;;;;4997200;28;20444;-68
2024/01/19 11:27:08;;;;;;;2.00;1.77;;;6.20;80.00;;;;;;4995929;28;20022;-68
2024/01/19 11:29:43;;;;;;;2.97;1.90;;;6.10;80.10;;;;;;4997113;28;20035;-68
2024/01/19 11:32:10;;;;;;;2.42;1.90;;;6.00;80.10;;;;;;4996775;28;20026;-69
2024/01/19 11:34:41;;;;;;;2.67;2.05;;;6.00;80.30;;;;;;4995906;28;20098;-69
2024/01/19 11:37:08;;;;;;;2.85;1.95;;;6.10;80.30;;;;;;4996676;28;20035;-69
2024/01/19 11:39:40;;;;;;;2.72;2.00;;;6.20;80.50;;;;;;4996385;28;20471;-69
2024/01/19 11:42:07;;;;;;;2.13;1.80;;;6.20;80.10;;;;;;4996252;28;20456;-69
2024/01/19 11:44:44;;;;;;;2.03;1.80;;;6.20;79.40;;;;;;4996803;28;20150;-69
2024/01/19 11:47:35;;;;;;;1.70;1.60;;;6.20;79.60;;;;;;4995352;28;20026;-68
2024/01/19 11:50:07;;;;;;;1.42;1.33;;;6.20;79.70;;;;;;4996122;28;20030;-69
2024/01/19 11:52:38;;;;;;;1.90;1.75;;;6.10;79.00;;;;;;4996058;28;20058;-69
2024/01/19 11:55:29;;;;;;;2.17;1.73;;;6.10;79.00;;;;;;4996414;28;20084;-69
2024/01/19 11:57:58;;;;;;;2.30;1.42;;;6.00;79.20;;;;;;4996437;28;20030;-69
2024/01/19 12:00:35;;;;;;;1.65;1.55;;;6.00;79.30;;;;;;4995170;28;20041;-69
2024/01/19 12:03:03;;;;;;;3.17;1.95;;;5.90;79.60;;;;;;4996251;28;20030;-69
2024/01/19 12:05:29;;;;;;;2.83;1.25;;;5.90;80.20;;;;;;4995993;28;20034;-69
2024/01/19 12:08:01;;;;;;;2.95;2.20;;;5.90;80.30;;;;;;4995614;28;20061;-69
2024/01/19 12:10:27;;;;;;;2.08;1.70;;;5.90;80.00;;;;;;4995150;28;20364;-69
2024/01/19 12:12:53;;;;;;;3.25;2.05;;;5.70;79.80;;;;;;4993328;28;20036;-69
2024/01/19 12:17:45;;;;;;;2.25;2.05;;;5.60;80.60;;;;;;5250701;23;20236;-74
2024/01/19 12:20:15;;;;;;;2.03;1.83;;;5.50;80.20;;;;;;4983057;28;20041;-73
2024/01/19 12:23:02;;;;;;;2.25;2.00;;;5.50;81.10;;;;;;4983645;28;20019;-73
2024/01/19 12:25:28;;;;;;;1.95;1.75;;;5.50;81.20;;;;;;4982554;28;20041;-73
2024/01/19 12:28:07;;;;;;;1.92;1.60;;;5.60;80.80;;;;;;4981546;28;20443;-73
2024/01/19 12:30:35;;;;;;;1.55;1.45;;;5.60;80.60;;;;;;4982619;28;20038;-73
2024/01/19 12:33:19;;;;;;;1.38;1.27;;;5.60;80.60;;;;;;4980899;28;20097;-74
2024/01/19 12:35:46;;;;;;;3.70;2.20;;;5.60;79.90;;;;;;4979309;28;20023;-73
2024/01/19 12:38:17;;;;;;;6.80;3.92;;;5.60;79.80;;;;;;4974277;28;20111;-73
2024/01/19 12:40:44;;;;;;;2.40;2.20;;;5.70;80.40;;;;;;4976926;28;20027;-73
2024/01/19 12:43:10;;;;;;;2.33;1.75;;;5.70;80.60;;;;;;4976277;28;20073;-73
2024/01/19 12:45:36;;;;;;;1.70;1.50;;;5.80;80.40;;;;;;4976217;28;20027;-73